Time;durP1;ratioP1;P1;durP2;ratioP2;P2;SDS_P1;SDS_P2;PMS_P1;PMS_P2;Temp;Humidity;BMP_temperature;BMP_pressure;BME280_temperature;BME280_humidity;BME280_pressure;Samples;Min_cycle;Max_cycle;Signal;HPM_P1;HPM_P2
2022/01/02 00:02:26;;;;;;;0.10;0.10;;;9.60;99.90;12.80;164084.00;;;;5009324;28;20207;-74
2022/01/02 00:05:05;;;;;;;0.10;0.10;;;9.60;99.90;12.80;164084.00;;;;5006577;28;20298;-74
2022/01/02 00:07:41;;;;;;;0.10;0.10;;;9.60;99.90;12.80;164084.00;;;;5006095;28;20204;-74
2022/01/02 00:10:13;;;;;;;0.10;0.10;;;9.60;99.90;12.80;164084.00;;;;5002828;28;20196;-74
2022/01/02 00:12:51;;;;;;;0.10;0.10;;;9.50;99.90;12.80;164084.00;;;;5001907;28;20204;-74
2022/01/02 00:15:21;;;;;;;0.00;0.00;;;9.50;99.90;12.80;164084.00;;;;5008532;28;20706;-73
2022/01/02 00:17:52;;;;;;;0.10;0.10;;;9.50;99.90;12.80;164084.00;;;;5005386;28;20483;-73
2022/01/02 00:20:32;;;;;;;0.10;0.10;;;9.50;99.90;12.80;164084.00;;;;5013371;28;20188;-73
2022/01/02 00:23:01;;;;;;;0.10;0.10;;;9.50;99.90;12.80;164084.00;;;;5001880;28;20220;-74
2022/01/02 00:25:33;;;;;;;0.10;0.10;;;9.50;99.90;12.80;164084.00;;;;5001845;28;20223;-74
2022/01/02 00:28:02;;;;;;;0.00;0.00;;;9.50;99.90;12.80;164084.00;;;;5003815;28;20606;-76
2022/01/02 00:30:44;;;;;;;0.10;0.10;;;9.50;99.90;12.80;164084.00;;;;5004131;28;20207;-75
2022/01/02 00:33:12;;;;;;;0.10;0.10;;;9.50;99.90;12.80;164084.00;;;;5002400;28;20314;-73
2022/01/02 00:35:42;;;;;;;0.10;0.10;;;9.50;99.90;12.80;164084.00;;;;5001192;28;20291;-74
2022/01/02 00:38:20;;;;;;;0.10;0.10;;;9.40;99.90;12.80;164084.00;;;;5002330;28;20200;-73
2022/01/02 00:40:52;;;;;;;0.10;0.10;;;9.40;99.90;12.80;164084.00;;;;5004132;28;20198;-73
2022/01/02 00:43:27;;;;;;;0.10;0.10;;;9.40;99.90;12.80;164084.00;;;;5001769;28;20227;-73
2022/01/02 00:46:00;;;;;;;0.10;0.10;;;9.40;99.90;12.80;164084.00;;;;5002206;28;20216;-72
2022/01/02 00:48:30;;;;;;;0.05;0.05;;;9.40;99.90;12.80;164084.00;;;;5015100;28;20231;-72
2022/01/02 00:51:04;;;;;;;0.10;0.10;;;9.40;99.90;12.80;164084.00;;;;5001681;28;20196;-72
2022/01/02 00:53:37;;;;;;;0.10;0.10;;;9.30;99.90;12.80;164084.00;;;;5015031;28;20202;-72
2022/01/02 00:56:06;;;;;;;0.00;0.00;;;9.30;99.90;12.80;164084.00;;;;5004319;28;20731;-71
2022/01/02 00:58:40;;;;;;;0.10;0.10;;;9.30;99.90;12.80;164084.00;;;;4999450;28;20197;-72
2022/01/02 01:01:16;;;;;;;0.10;0.10;;;9.30;99.90;12.80;164084.00;;;;4998526;28;20582;-75
2022/01/02 01:03:46;;;;;;;0.00;0.00;;;9.30;99.90;12.80;164084.00;;;;5009572;28;20211;-74
2022/01/02 01:06:18;;;;;;;0.10;0.10;;;9.20;99.90;12.80;164084.00;;;;5003871;28;20186;-75
2022/01/02 01:08:46;;;;;;;0.10;0.10;;;9.20;99.90;12.80;164084.00;;;;5012838;28;20184;-72
2022/01/02 01:11:14;;;;;;;0.00;0.00;;;9.20;99.90;12.80;164084.00;;;;5019589;28;20238;-71
2022/01/02 01:13:43;;;;;;;0.00;0.00;;;9.20;99.90;12.80;164084.00;;;;5014991;28;20204;-71
2022/01/02 01:16:12;;;;;;;0.08;0.08;;;9.20;99.90;12.80;164084.00;;;;5016354;28;20196;-72
2022/01/02 01:18:40;;;;;;;0.03;0.03;;;9.20;99.90;12.80;164084.00;;;;5013236;28;20214;-71
2022/01/02 01:21:09;;;;;;;0.10;0.10;;;9.20;99.90;12.80;164084.00;;;;5015672;28;20732;-72
2022/01/02 01:23:39;;;;;;;0.00;0.00;;;9.20;99.90;12.80;164084.00;;;;5004233;28;20270;-73
2022/01/02 01:26:09;;;;;;;0.10;0.10;;;9.20;99.90;12.80;164084.00;;;;5012921;28;20249;-73
2022/01/02 01:28:38;;;;;;;0.00;0.00;;;9.20;99.90;12.80;164084.00;;;;5012471;28;20665;-75
2022/01/02 01:31:06;;;;;;;0.10;0.10;;;9.20;99.90;12.80;164084.00;;;;5009903;28;20200;-72
2022/01/02 01:33:34;;;;;;;0.10;0.10;;;9.20;99.90;12.80;164084.00;;;;5012993;28;20196;-72
2022/01/02 01:36:02;;;;;;;0.10;0.10;;;9.30;99.90;12.80;164084.00;;;;5012028;28;20556;-73
2022/01/02 01:38:31;;;;;;;0.10;0.10;;;9.30;99.90;12.80;164084.00;;;;5010878;28;20195;-72
2022/01/02 01:41:11;;;;;;;0.00;0.00;;;9.20;99.90;12.80;164084.00;;;;5012055;28;20199;-72
2022/01/02 01:43:53;;;;;;;0.10;0.10;;;9.20;99.90;12.80;164084.00;;;;5010996;28;20231;-73
2022/01/02 01:46:21;;;;;;;0.05;0.05;;;9.20;99.90;12.80;164084.00;;;;5012406;28;20195;-72
2022/01/02 01:48:53;;;;;;;0.05;0.05;;;9.20;99.90;12.80;164084.00;;;;5011147;28;20196;-72
2022/01/02 01:51:21;;;;;;;0.10;0.10;;;9.20;99.90;12.80;164084.00;;;;5010657;28;20199;-72
2022/01/02 01:53:49;;;;;;;0.10;0.10;;;9.20;99.90;12.80;164084.00;;;;5010224;28;20551;-72
2022/01/02 01:56:19;;;;;;;0.10;0.10;;;9.20;99.90;12.80;164084.00;;;;5010454;28;20204;-72
2022/01/02 01:58:47;;;;;;;0.10;0.10;;;9.20;99.90;12.80;164084.00;;;;5010925;28;20660;-72
2022/01/02 02:01:15;;;;;;;0.10;0.10;;;9.20;99.90;12.80;164084.00;;;;5012567;28;20199;-72
2022/01/02 02:03:51;;;;;;;0.08;0.08;;;9.20;99.90;12.80;164084.00;;;;5013938;28;20207;-72
2022/01/02 02:06:20;;;;;;;0.10;0.10;;;9.20;99.90;12.80;164084.00;;;;5014744;28;20257;-72
2022/01/02 02:08:52;;;;;;;0.10;0.10;;;9.10;99.90;12.80;164084.00;;;;5015081;28;20227;-72
2022/01/02 02:11:23;;;;;;;0.10;0.10;;;9.10;99.90;12.80;164084.00;;;;5014789;28;20219;-72
2022/01/02 02:13:53;;;;;;;0.00;0.00;;;9.20;99.90;12.80;164084.00;;;;5011546;28;20282;-72
2022/01/02 02:16:21;;;;;;;0.10;0.10;;;9.10;99.90;12.80;164084.00;;;;5001567;28;20207;-72
2022/01/02 02:18:49;;;;;;;0.00;0.00;;;9.10;99.90;12.80;164084.00;;;;5010646;28;20745;-73
2022/01/02 02:21:30;;;;;;;0.10;0.10;;;9.10;99.90;12.80;164084.00;;;;5027519;28;20235;-74
2022/01/02 02:23:58;;;;;;;0.00;0.00;;;9.10;99.90;12.80;164084.00;;;;4995829;28;20228;-74
2022/01/02 02:26:27;;;;;;;0.10;0.10;;;9.10;99.90;12.80;164084.00;;;;4994668;28;20197;-73
2022/01/02 02:28:55;;;;;;;0.00;0.00;;;9.10;99.90;12.80;164084.00;;;;4995691;28;20196;-72
2022/01/02 02:31:23;;;;;;;0.10;0.10;;;9.10;99.90;12.80;164084.00;;;;5011235;28;20664;-73
2022/01/02 02:33:52;;;;;;;0.10;0.10;;;9.10;99.90;12.80;164084.00;;;;5015087;28;20719;-73
2022/01/02 02:36:20;;;;;;;0.10;0.10;;;9.10;99.90;12.80;164084.00;;;;5013836;28;20661;-73
2022/01/02 02:38:49;;;;;;;0.10;0.10;;;9.00;99.90;12.80;164084.00;;;;5014788;28;20231;-73
2022/01/02 02:41:17;;;;;;;0.10;0.10;;;9.00;99.90;12.80;164084.00;;;;5013712;28;20286;-72
2022/01/02 02:43:51;;;;;;;0.00;0.00;;;9.00;99.90;12.80;164084.00;;;;5013606;28;20211;-72
2022/01/02 02:49:11;;;;;;;0.10;0.10;;;9.00;99.90;12.80;164084.00;;;;5014032;28;20196;-72
2022/01/02 02:51:49;;;;;;;0.10;0.10;;;9.00;99.90;12.80;164084.00;;;;5013631;28;20696;-73
2022/01/02 02:54:31;;;;;;;0.10;0.10;;;9.00;99.90;12.80;164084.00;;;;5007218;28;20700;-73
2022/01/02 02:57:01;;;;;;;0.00;0.00;;;9.00;99.90;12.80;164084.00;;;;5012080;28;20203;-74
2022/01/02 02:59:35;;;;;;;0.00;0.00;;;9.00;99.90;12.80;164084.00;;;;5013649;28;20223;-74
2022/01/02 03:02:05;;;;;;;0.00;0.00;;;9.00;99.90;12.80;164084.00;;;;5010284;28;20244;-73
2022/01/02 03:04:40;;;;;;;0.00;0.00;;;9.00;99.90;12.80;164084.00;;;;4994034;28;20259;-74
2022/01/02 03:07:08;;;;;;;0.10;0.10;;;9.00;99.90;12.80;164084.00;;;;4993840;28;20275;-74
2022/01/02 03:09:46;;;;;;;0.10;0.10;;;8.90;99.90;12.80;164084.00;;;;4994859;28;20193;-72
2022/01/02 03:12:15;;;;;;;0.00;0.00;;;8.90;99.90;12.80;164084.00;;;;5012950;28;20196;-73
2022/01/02 03:14:47;;;;;;;0.10;0.10;;;8.80;99.90;12.80;164084.00;;;;5012692;28;20231;-73
2022/01/02 03:17:17;;;;;;;0.00;0.00;;;8.80;99.90;12.80;164084.00;;;;5012912;28;20265;-73
2022/01/02 03:19:45;;;;;;;0.10;0.10;;;8.80;99.90;12.80;164084.00;;;;5012538;28;20669;-75
2022/01/02 03:22:16;;;;;;;0.00;0.00;;;8.70;99.90;12.80;164084.00;;;;5013192;28;20287;-73
2022/01/02 03:24:49;;;;;;;0.10;0.10;;;8.80;99.90;12.80;164084.00;;;;5012656;28;20286;-74
2022/01/02 03:27:19;;;;;;;0.00;0.00;;;8.70;99.90;12.80;164084.00;;;;5012695;28;20331;-74
2022/01/02 03:29:47;;;;;;;0.00;0.00;;;8.70;99.90;12.80;164084.00;;;;5012504;28;20187;-74
2022/01/02 03:32:17;;;;;;;0.00;0.00;;;8.70;99.90;12.80;164084.00;;;;5012953;28;20191;-74
2022/01/02 03:34:45;;;;;;;0.10;0.10;;;8.70;99.90;12.80;164084.00;;;;5013754;28;20227;-74
2022/01/02 03:37:13;;;;;;;0.00;0.00;;;8.70;99.90;12.80;164084.00;;;;5012526;28;20188;-74
2022/01/02 03:39:42;;;;;;;0.10;0.10;;;8.70;99.90;12.80;164084.00;;;;5012289;28;20672;-73
2022/01/02 03:42:11;;;;;;;0.10;0.10;;;8.70;99.90;12.80;164084.00;;;;5014003;28;20188;-73
2022/01/02 03:44:40;;;;;;;0.10;0.10;;;8.70;99.90;12.80;164084.00;;;;5028908;28;20643;-74
2022/01/02 03:47:08;;;;;;;0.10;0.10;;;8.70;99.90;12.80;164084.00;;;;5013383;28;20187;-73
2022/01/02 03:49:36;;;;;;;0.00;0.00;;;8.70;99.90;12.80;164084.00;;;;5013629;28;20226;-74
2022/01/02 03:52:05;;;;;;;0.05;0.05;;;8.60;99.90;12.80;164084.00;;;;4993889;28;20276;-74
2022/01/02 03:54:33;;;;;;;0.08;0.08;;;8.60;99.90;12.80;164084.00;;;;4992696;28;20232;-74
2022/01/02 03:57:01;;;;;;;0.10;0.10;;;8.60;99.90;12.80;164084.00;;;;5001553;28;20208;-74
2022/01/02 03:59:32;;;;;;;0.00;0.00;;;8.60;99.90;12.80;164084.00;;;;5029352;28;20286;-74
2022/01/02 04:02:00;;;;;;;0.10;0.10;;;8.60;99.90;12.80;164084.00;;;;5029183;28;20211;-75
2022/01/02 04:04:29;;;;;;;0.10;0.10;;;8.60;99.90;12.80;164084.00;;;;5030182;28;20314;-74
2022/01/02 04:06:56;;;;;;;0.10;0.10;;;8.60;99.90;12.80;164084.00;;;;5029179;28;20207;-74
2022/01/02 04:09:26;;;;;;;0.00;0.00;;;8.60;99.90;12.80;164084.00;;;;5013704;28;20202;-74
2022/01/02 04:11:54;;;;;;;0.10;0.10;;;8.60;99.90;12.80;164084.00;;;;5010505;28;20227;-74
2022/01/02 04:14:23;;;;;;;0.10;0.10;;;8.60;99.90;12.80;164084.00;;;;5000596;28;20255;-74
2022/01/02 04:16:52;;;;;;;0.10;0.10;;;8.50;99.90;12.80;164084.00;;;;4999613;28;20689;-74
2022/01/02 04:19:20;;;;;;;0.10;0.10;;;8.50;99.90;12.80;164084.00;;;;5008275;28;20203;-75
2022/01/02 04:21:48;;;;;;;0.10;0.10;;;8.50;99.90;12.80;164084.00;;;;4994962;28;20701;-74
2022/01/02 04:24:16;;;;;;;0.00;0.00;;;8.50;99.90;12.80;164084.00;;;;5011106;28;20306;-74
2022/01/02 04:26:45;;;;;;;0.10;0.10;;;8.50;99.90;12.80;164084.00;;;;5003282;28;20193;-75
2022/01/02 04:29:13;;;;;;;0.10;0.10;;;8.50;99.90;12.80;164084.00;;;;5001277;28;20220;-74
2022/01/02 04:31:41;;;;;;;0.00;0.00;;;8.50;99.90;12.80;164084.00;;;;5011175;28;20202;-74
2022/01/02 04:34:12;;;;;;;0.10;0.10;;;8.50;99.90;12.80;164084.00;;;;5011642;28;20484;-74
2022/01/02 04:36:40;;;;;;;0.00;0.00;;;8.50;99.90;12.80;164084.00;;;;5011478;28;20203;-74
2022/01/02 04:39:09;;;;;;;0.10;0.10;;;8.50;99.90;12.80;164084.00;;;;5012672;28;20184;-74
2022/01/02 04:41:37;;;;;;;0.10;0.10;;;8.50;99.90;12.80;164084.00;;;;5012696;28;20192;-74
2022/01/02 04:44:06;;;;;;;0.10;0.10;;;8.50;99.90;12.80;164084.00;;;;5011300;28;20219;-73
2022/01/02 04:46:35;;;;;;;0.10;0.10;;;8.50;99.90;12.80;164084.00;;;;5011003;28;20585;-74
2022/01/02 04:49:03;;;;;;;0.10;0.10;;;8.40;99.90;12.80;164084.00;;;;5011145;28;20196;-74
2022/01/02 04:51:33;;;;;;;0.10;0.10;;;8.40;99.90;12.80;164084.00;;;;5012693;28;20187;-73
2022/01/02 04:54:01;;;;;;;0.10;0.10;;;8.30;99.90;12.80;164084.00;;;;5011938;28;20959;-72
2022/01/02 04:56:30;;;;;;;0.10;0.10;;;8.30;99.90;12.80;164084.00;;;;5012359;28;20318;-72
2022/01/02 04:58:58;;;;;;;0.10;0.10;;;8.20;99.90;12.80;164084.00;;;;5011116;28;20204;-73
2022/01/02 05:01:26;;;;;;;0.10;0.10;;;8.30;99.90;12.80;164084.00;;;;5012118;28;20184;-72
2022/01/02 05:03:54;;;;;;;0.10;0.10;;;8.20;99.90;12.80;164084.00;;;;5011068;28;20206;-72
2022/01/02 05:06:24;;;;;;;0.10;0.10;;;8.20;99.90;12.80;164084.00;;;;5010708;28;20739;-72
2022/01/02 05:08:54;;;;;;;0.10;0.10;;;8.20;99.90;12.80;164084.00;;;;5010795;28;20549;-73
2022/01/02 05:11:22;;;;;;;0.03;0.03;;;8.20;99.90;12.80;164084.00;;;;5010430;28;20203;-73
2022/01/02 05:13:50;;;;;;;0.10;0.10;;;8.20;99.90;12.80;164084.00;;;;5010636;28;20287;-73
2022/01/02 05:16:19;;;;;;;0.10;0.10;;;8.20;99.90;12.80;164084.00;;;;5010558;28;20200;-73
2022/01/02 05:18:48;;;;;;;0.10;0.10;;;8.20;99.90;12.80;164084.00;;;;5010528;28;20191;-73
2022/01/02 05:21:17;;;;;;;0.10;0.10;;;8.20;99.90;12.80;164084.00;;;;5010788;28;20219;-73
2022/01/02 05:23:45;;;;;;;0.10;0.10;;;8.20;99.90;12.80;164084.00;;;;5011897;28;20187;-73
2022/01/02 05:26:14;;;;;;;0.10;0.10;;;8.20;99.90;12.80;164084.00;;;;5010645;28;20227;-73
2022/01/02 05:28:42;;;;;;;0.10;0.10;;;8.30;99.90;12.80;164084.00;;;;5011863;28;20210;-73
2022/01/02 05:31:10;;;;;;;0.10;0.10;;;8.30;99.90;12.80;164084.00;;;;5011846;28;20195;-74
2022/01/02 05:33:39;;;;;;;0.10;0.10;;;8.40;99.90;12.80;164084.00;;;;5010758;28;20191;-73
2022/01/02 05:36:07;;;;;;;0.10;0.10;;;8.40;99.90;12.80;164084.00;;;;5003512;28;20204;-74
2022/01/02 05:38:35;;;;;;;0.05;0.05;;;8.30;99.90;12.80;164084.00;;;;5007549;28;20678;-73
2022/01/02 05:41:04;;;;;;;0.10;0.10;;;8.30;99.90;12.80;164084.00;;;;4994754;28;20207;-74
2022/01/02 05:43:34;;;;;;;0.08;0.08;;;8.40;99.90;12.80;164084.00;;;;5007357;28;20263;-74
2022/01/02 05:46:05;;;;;;;0.10;0.10;;;8.30;99.90;12.80;164084.00;;;;4996066;28;20700;-73
2022/01/02 05:48:36;;;;;;;0.10;0.10;;;8.30;99.90;12.80;164084.00;;;;4991128;28;20223;-73
2022/01/02 05:51:04;;;;;;;0.10;0.10;;;8.30;99.90;12.80;164084.00;;;;5005988;28;20615;-73
2022/01/02 05:53:32;;;;;;;0.10;0.10;;;8.40;99.90;12.80;164084.00;;;;5010630;28;20196;-73
2022/01/02 05:56:01;;;;;;;0.10;0.10;;;8.40;99.90;12.80;164084.00;;;;5033732;22;20251;-77
2022/01/02 05:58:31;;;;;;;0.10;0.10;;;8.40;99.90;12.80;164084.00;;;;5010584;28;20270;-74
2022/01/02 06:01:01;;;;;;;0.10;0.10;;;8.40;99.90;12.80;164084.00;;;;5009754;28;20299;-74
2022/01/02 06:03:30;;;;;;;0.10;0.10;;;8.40;99.90;12.80;164084.00;;;;5010463;28;20682;-74
2022/01/02 06:05:58;;;;;;;0.10;0.10;;;8.40;99.90;12.80;164084.00;;;;5026266;28;20222;-74
2022/01/02 06:08:27;;;;;;;0.10;0.10;;;8.40;99.90;12.80;164084.00;;;;5046867;28;20667;-73
2022/01/02 06:10:55;;;;;;;0.03;0.03;;;8.40;99.90;12.80;164084.00;;;;5029192;28;20199;-73
2022/01/02 06:13:23;;;;;;;0.00;0.00;;;8.40;99.90;12.80;164084.00;;;;5046301;28;20664;-73
2022/01/02 06:15:51;;;;;;;0.10;0.10;;;8.40;99.90;12.80;164084.00;;;;5026041;28;20711;-73
2022/01/02 06:18:21;;;;;;;0.10;0.10;;;8.40;99.90;12.80;164084.00;;;;5021237;28;20198;-74
2022/01/02 06:20:49;;;;;;;0.05;0.05;;;8.50;99.90;12.80;164084.00;;;;5012313;28;20263;-73
2022/01/02 06:23:18;;;;;;;0.03;0.03;;;8.50;99.90;12.80;164084.00;;;;5010521;28;20196;-75
2022/01/02 06:25:47;;;;;;;0.08;0.08;;;8.50;99.90;12.80;164084.00;;;;5009882;28;20212;-76
2022/01/02 06:28:15;;;;;;;0.10;0.10;;;8.40;99.90;12.80;164084.00;;;;5029608;28;20542;-76
2022/01/02 06:30:44;;;;;;;0.10;0.10;;;8.40;99.90;12.80;164084.00;;;;5046404;28;20195;-77
2022/01/02 06:33:12;;;;;;;0.10;0.10;;;8.40;99.90;12.80;164084.00;;;;5029922;28;20268;-76
2022/01/02 06:35:42;;;;;;;0.10;0.10;;;8.40;99.90;12.80;164084.00;;;;5046204;28;20333;-76
2022/01/02 06:38:16;;;;;;;0.10;0.10;;;8.40;99.90;12.80;164084.00;;;;5029609;28;20562;-75
2022/01/02 06:40:48;;;;;;;0.00;0.00;;;8.40;99.90;12.80;164084.00;;;;5046182;28;20293;-75
2022/01/02 06:43:17;;;;;;;0.10;0.10;;;8.40;99.90;12.80;164084.00;;;;5006885;28;20193;-75
2022/01/02 06:45:46;;;;;;;0.10;0.10;;;8.40;99.90;12.80;164084.00;;;;4990336;28;20213;-74
2022/01/02 06:48:14;;;;;;;0.10;0.10;;;8.30;99.90;12.80;164084.00;;;;5031282;28;20671;-75
2022/01/02 06:50:44;;;;;;;0.10;0.10;;;8.40;99.90;12.80;164084.00;;;;5033512;28;20195;-74
2022/01/02 06:53:12;;;;;;;0.10;0.10;;;8.30;99.90;12.80;164084.00;;;;5030801;28;20707;-74
2022/01/02 06:55:40;;;;;;;0.10;0.10;;;8.30;99.90;12.80;164084.00;;;;5013165;28;20254;-74
2022/01/02 06:58:08;;;;;;;0.05;0.05;;;8.30;99.90;12.80;164084.00;;;;5030027;28;20254;-74
2022/01/02 07:00:38;;;;;;;0.10;0.10;;;8.40;99.90;12.80;164084.00;;;;5013569;28;20294;-74
2022/01/02 07:03:08;;;;;;;0.10;0.10;;;8.40;99.90;12.80;164084.00;;;;5030918;28;20207;-75
2022/01/02 07:05:36;;;;;;;0.10;0.10;;;8.30;99.90;12.80;164084.00;;;;5013053;28;20222;-76
2022/01/02 07:08:07;;;;;;;0.10;0.10;;;8.30;99.90;12.80;164084.00;;;;5030358;28;20576;-76
2022/01/02 07:10:36;;;;;;;0.00;0.00;;;8.20;99.90;12.80;164084.00;;;;5031065;28;20196;-76
2022/01/02 07:13:04;;;;;;;0.10;0.10;;;8.20;99.90;12.80;164084.00;;;;5014506;28;20703;-77
2022/01/02 07:15:32;;;;;;;0.10;0.10;;;8.20;99.90;12.80;164084.00;;;;5014147;28;20216;-77
2022/01/02 07:18:01;;;;;;;0.10;0.10;;;8.30;99.90;12.80;164084.00;;;;5015763;28;20207;-76
2022/01/02 07:20:29;;;;;;;0.00;0.00;;;8.30;99.90;12.80;164084.00;;;;5026030;28;20689;-73
2022/01/02 07:22:57;;;;;;;0.10;0.10;;;8.30;99.90;12.80;164084.00;;;;5034111;28;20203;-73
2022/01/02 07:25:26;;;;;;;0.05;0.05;;;8.30;99.90;12.80;164084.00;;;;5032392;28;20215;-73
2022/01/02 07:27:54;;;;;;;0.03;0.03;;;8.30;99.90;12.80;164084.00;;;;5049400;28;20218;-73
2022/01/02 07:30:22;;;;;;;0.10;0.10;;;8.40;99.90;12.80;164084.00;;;;5033761;28;20230;-76
2022/01/02 07:32:50;;;;;;;0.10;0.10;;;8.30;99.90;12.80;164084.00;;;;5023077;28;20192;-76
2022/01/02 07:35:18;;;;;;;0.10;0.10;;;8.30;99.90;12.80;164084.00;;;;5013669;28;20215;-77
2022/01/02 07:37:46;;;;;;;0.10;0.10;;;8.20;99.90;12.80;164084.00;;;;5013868;28;20564;-76
2022/01/02 07:40:14;;;;;;;0.00;0.00;;;8.30;99.90;12.80;164084.00;;;;5014008;28;20187;-77
2022/01/02 07:42:43;;;;;;;0.00;0.00;;;8.30;99.90;12.80;164084.00;;;;5012792;28;20195;-77
2022/01/02 07:45:18;;;;;;;0.00;0.00;;;8.30;99.90;12.80;164084.00;;;;5013920;28;20762;-76
2022/01/02 07:47:46;;;;;;;0.10;0.10;;;8.30;99.90;12.80;164084.00;;;;5031549;28;20230;-77
2022/01/02 07:50:15;;;;;;;0.10;0.10;;;8.30;99.90;12.80;164084.00;;;;5033624;28;20596;-77
2022/01/02 07:52:43;;;;;;;0.10;0.10;;;8.30;99.90;12.80;164084.00;;;;5033519;28;20671;-78
2022/01/02 07:55:11;;;;;;;0.10;0.10;;;8.30;99.90;12.80;164084.00;;;;5030343;28;20269;-76
2022/01/02 07:57:39;;;;;;;0.10;0.10;;;8.30;99.90;12.80;164084.00;;;;4995370;28;20673;-76
2022/01/02 08:00:10;;;;;;;0.10;0.10;;;8.30;99.90;12.80;164084.00;;;;5014745;28;20641;-76
2022/01/02 08:02:41;;;;;;;0.10;0.10;;;8.30;99.90;12.80;164084.00;;;;5022279;28;20202;-76
2022/01/02 08:05:11;;;;;;;0.10;0.10;;;8.40;99.90;12.80;164084.00;;;;5015733;28;20231;-76
2022/01/02 08:07:40;;;;;;;0.03;0.03;;;8.40;99.90;12.80;164084.00;;;;5012378;28;20219;-75
2022/01/02 08:10:09;;;;;;;0.10;0.10;;;8.40;99.90;12.80;164084.00;;;;5014302;28;20229;-76
2022/01/02 08:12:37;;;;;;;0.10;0.10;;;8.50;99.90;12.80;164084.00;;;;4993873;28;20267;-76
2022/01/02 08:15:09;;;;;;;0.00;0.00;;;8.50;99.90;12.80;164084.00;;;;4998372;28;20798;-75
2022/01/02 08:17:37;;;;;;;0.10;0.10;;;8.50;99.90;12.80;164084.00;;;;4992275;28;20200;-76
2022/01/02 08:20:07;;;;;;;0.10;0.10;;;8.60;99.90;12.80;164084.00;;;;5018471;28;20195;-76
2022/01/02 08:22:35;;;;;;;0.10;0.10;;;8.60;99.90;12.80;164084.00;;;;5022891;28;20612;-75
2022/01/02 08:25:05;;;;;;;0.00;0.00;;;8.60;99.90;12.80;164084.00;;;;5008220;28;20767;-76
2022/01/02 08:27:33;;;;;;;0.00;0.00;;;8.70;99.90;12.80;164084.00;;;;5015862;28;20273;-76
2022/01/02 08:30:01;;;;;;;0.10;0.10;;;8.70;99.90;12.80;164084.00;;;;5024564;28;20727;-75
2022/01/02 08:32:30;;;;;;;0.10;0.10;;;8.70;99.90;12.80;164084.00;;;;4997299;28;20208;-76
2022/01/02 08:34:58;;;;;;;0.00;0.00;;;8.70;99.90;12.80;164084.00;;;;4999755;28;20699;-73
2022/01/02 08:37:26;;;;;;;0.10;0.10;;;8.80;99.90;12.80;164084.00;;;;5012532;28;20688;-73
2022/01/02 08:39:54;;;;;;;0.10;0.10;;;8.80;99.90;12.80;164084.00;;;;5017767;28;20686;-73
2022/01/02 08:42:22;;;;;;;0.00;0.00;;;8.80;99.90;12.80;164084.00;;;;5029902;28;20237;-73
2022/01/02 08:44:50;;;;;;;0.10;0.10;;;8.80;99.90;12.80;164084.00;;;;5032532;28;20211;-73
2022/01/02 08:47:18;;;;;;;0.10;0.10;;;8.80;99.90;12.80;164084.00;;;;5020082;28;20584;-73
2022/01/02 08:49:47;;;;;;;0.10;0.10;;;8.80;99.90;12.80;164084.00;;;;5012852;28;20187;-72
2022/01/02 08:52:15;;;;;;;0.00;0.00;;;8.80;99.90;12.80;164084.00;;;;5013245;28;20246;-73
2022/01/02 08:54:43;;;;;;;0.00;0.00;;;8.90;99.90;12.80;164084.00;;;;5012360;28;20227;-75
2022/01/02 08:57:11;;;;;;;0.10;0.10;;;8.90;99.90;12.80;164084.00;;;;5033904;28;20644;-76
2022/01/02 08:59:41;;;;;;;0.05;0.05;;;8.90;99.90;12.80;164084.00;;;;5033180;28;20217;-75
2022/01/02 09:02:09;;;;;;;0.10;0.10;;;8.90;99.90;12.80;164084.00;;;;5030055;28;20257;-75
2022/01/02 09:04:37;;;;;;;0.10;0.10;;;9.00;99.90;12.80;164084.00;;;;5032696;28;20272;-74
2022/01/02 09:07:06;;;;;;;0.00;0.00;;;9.10;99.90;12.80;164084.00;;;;5021644;28;20759;-74
2022/01/02 09:09:35;;;;;;;0.03;0.03;;;9.10;99.90;12.80;164084.00;;;;5008825;28;20204;-74
2022/01/02 09:12:04;;;;;;;0.00;0.00;;;9.10;99.90;12.80;164084.00;;;;5010200;28;20199;-74
2022/01/02 09:14:32;;;;;;;0.10;0.10;;;9.10;99.90;12.80;164084.00;;;;5024923;28;20223;-74
2022/01/02 09:17:00;;;;;;;0.00;0.00;;;9.20;99.90;12.80;164084.00;;;;5021162;28;20591;-75
2022/01/02 09:19:28;;;;;;;0.08;0.08;;;9.30;99.90;12.80;164084.00;;;;5030690;28;20202;-75
2022/01/02 09:21:57;;;;;;;0.00;0.00;;;9.40;99.90;12.80;164084.00;;;;5037362;28;20203;-74
2022/01/02 09:24:26;;;;;;;0.10;0.10;;;9.40;99.90;12.80;164084.00;;;;5019581;28;20261;-74
2022/01/02 09:26:54;;;;;;;0.10;0.10;;;9.50;99.90;12.80;164084.00;;;;5017479;28;20208;-74
2022/01/02 09:29:22;;;;;;;0.10;0.10;;;9.50;99.90;12.80;164084.00;;;;5018011;28;20222;-75
2022/01/02 09:31:51;;;;;;;0.00;0.00;;;9.50;99.90;12.80;164084.00;;;;5019189;28;20196;-74
2022/01/02 09:34:19;;;;;;;0.10;0.10;;;9.50;99.90;12.80;164084.00;;;;5012095;28;20216;-74
2022/01/02 09:36:47;;;;;;;0.00;0.00;;;9.50;99.90;12.80;164084.00;;;;5011390;28;20211;-75
2022/01/02 09:39:15;;;;;;;0.00;0.00;;;9.60;99.90;12.80;164084.00;;;;5023688;28;20221;-75
2022/01/02 09:41:44;;;;;;;0.00;0.00;;;9.60;99.90;12.80;164084.00;;;;5011788;28;20245;-74
2022/01/02 09:44:12;;;;;;;0.00;0.00;;;9.60;99.90;12.80;164084.00;;;;5024963;28;20675;-74
2022/01/02 09:46:42;;;;;;;0.10;0.10;;;9.60;99.90;12.80;164084.00;;;;5029936;28;20191;-74
2022/01/02 09:49:11;;;;;;;0.00;0.00;;;9.60;99.90;12.80;164084.00;;;;5031581;28;20254;-76
2022/01/02 09:51:39;;;;;;;0.10;0.10;;;9.60;99.90;12.80;164084.00;;;;5031635;28;20191;-75
2022/01/02 09:54:10;;;;;;;0.10;0.10;;;9.60;99.90;12.80;164084.00;;;;5031366;28;20195;-75
2022/01/02 09:56:38;;;;;;;0.10;0.10;;;9.60;99.90;12.80;164084.00;;;;5031349;28;20199;-73
2022/01/02 09:59:07;;;;;;;0.00;0.00;;;9.70;99.90;12.80;164084.00;;;;5029866;28;20199;-72
2022/01/02 10:01:37;;;;;;;0.10;0.10;;;9.70;99.90;12.80;164084.00;;;;5029899;28;20203;-72
2022/01/02 10:04:05;;;;;;;0.08;0.08;;;9.70;99.90;12.80;164084.00;;;;5031296;28;20199;-76
2022/01/02 10:06:46;;;;;;;0.00;0.00;;;9.80;99.90;12.80;164084.00;;;;4995661;28;20204;-75
2022/01/02 10:09:31;;;;;;;0.10;0.10;;;9.80;99.90;12.80;164084.00;;;;5011945;28;20223;-74
2022/01/02 10:12:22;;;;;;;0.10;0.10;;;9.80;99.90;12.80;164084.00;;;;5011569;28;20419;-75
2022/01/02 10:15:18;;;;;;;0.00;0.00;;;9.90;99.90;12.80;164084.00;;;;5012940;28;20227;-76
2022/01/02 10:18:00;;;;;;;0.03;0.03;;;9.90;99.90;12.80;164084.00;;;;4995776;28;20204;-76
2022/01/02 10:20:32;;;;;;;0.00;0.00;;;9.90;99.90;12.80;164084.00;;;;5046761;28;20199;-76
2022/01/02 10:23:10;;;;;;;0.10;0.10;;;10.00;99.90;12.80;164084.00;;;;5015649;28;20204;-76
2022/01/02 10:25:46;;;;;;;0.03;0.03;;;10.00;99.90;12.80;164084.00;;;;5008756;28;20216;-76
2022/01/02 10:28:25;;;;;;;0.05;0.05;;;10.00;99.90;12.80;164084.00;;;;5015449;28;20281;-76
2022/01/02 10:30:59;;;;;;;0.05;0.05;;;10.00;99.90;12.80;164084.00;;;;5012448;28;20203;-76
2022/01/02 10:33:30;;;;;;;0.10;0.10;;;10.10;99.90;12.80;164084.00;;;;4995994;28;20199;-76
2022/01/02 10:36:02;;;;;;;0.10;0.10;;;10.10;99.90;12.80;164084.00;;;;5014239;28;20220;-75
2022/01/02 10:38:32;;;;;;;0.10;0.10;;;10.10;99.90;12.80;164084.00;;;;5028298;28;20234;-76
2022/01/02 10:41:00;;;;;;;0.00;0.00;;;10.10;99.90;12.80;164084.00;;;;5029370;28;20247;-76
2022/01/02 10:43:31;;;;;;;0.10;0.10;;;10.10;99.90;12.80;164084.00;;;;5015086;28;20238;-76
2022/01/02 10:46:07;;;;;;;0.00;0.00;;;10.10;99.90;12.80;164084.00;;;;5014255;28;20281;-76
2022/01/02 10:48:38;;;;;;;0.05;0.05;;;10.10;99.90;12.80;164084.00;;;;5013157;28;20253;-76
2022/01/02 10:51:09;;;;;;;0.10;0.10;;;10.10;99.90;12.80;164084.00;;;;5013940;28;20203;-76
2022/01/02 10:53:52;;;;;;;0.10;0.10;;;10.10;99.90;12.80;164084.00;;;;5015122;28;20242;-75
2022/01/02 10:56:23;;;;;;;0.10;0.10;;;10.20;99.90;12.80;164084.00;;;;5014090;28;20259;-76
2022/01/02 10:58:58;;;;;;;0.05;0.05;;;10.10;99.90;12.80;164084.00;;;;5014686;28;20253;-76
2022/01/02 11:01:28;;;;;;;0.10;0.10;;;10.10;99.90;12.80;164084.00;;;;5014796;28;20200;-76
2022/01/02 11:04:01;;;;;;;0.00;0.00;;;10.10;99.90;12.80;164084.00;;;;5023495;28;20275;-76
2022/01/02 11:06:35;;;;;;;0.00;0.00;;;10.10;99.90;12.80;164084.00;;;;5014865;28;20196;-73
2022/01/02 11:09:04;;;;;;;0.10;0.10;;;10.10;99.90;12.80;164084.00;;;;5018749;28;20281;-76
2022/01/02 11:11:33;;;;;;;0.10;0.10;;;10.10;99.90;12.80;164084.00;;;;5032002;28;20660;-76